Time;durP1;ratioP1;P1;durP2;ratioP2;P2;SDS_P1;SDS_P2;PMS_P1;PMS_P2;Temp;Humidity;BMP_temperature;BMP_pressure;BME280_temperature;BME280_humidity;BME280_pressure;Samples;Min_cycle;Max_cycle;Signal;HPM_P1;HPM_P2
2023/12/16 00:02:13;;;;;;;3.27;2.10;;;;;;;;;;4910828;29;20330;-71
2023/12/16 00:04:40;;;;;;;2.80;2.00;;;;;;;;;;4927190;29;20945;-72
2023/12/16 00:07:05;;;;;;;3.87;2.10;;;;;;;;;;4924759;29;20932;-72
2023/12/16 00:09:31;;;;;;;3.20;1.90;;;;;;;;;;4927040;29;20241;-72
2023/12/16 00:11:56;;;;;;;3.03;1.90;;;;;;;;;;4927328;29;20240;-72
2023/12/16 00:14:21;;;;;;;3.83;2.10;;;;;;;;;;4927064;29;20828;-71
2023/12/16 00:16:47;;;;;;;3.20;2.00;;;;;;;;;;4926509;29;20672;-72
2023/12/16 00:19:12;;;;;;;3.23;2.00;;;;;;;;;;4927221;29;20782;-73
2023/12/16 00:21:37;;;;;;;3.37;2.13;;;;;;;;;;4923273;29;20236;-72
2023/12/16 00:24:03;;;;;;;4.57;2.00;;;;;;;;;;4908957;29;20244;-73
2023/12/16 00:26:29;;;;;;;2.80;1.80;;;;;;;;;;4909304;29;20221;-71
2023/12/16 00:28:54;;;;;;;4.87;1.70;;;;;;;;;;4908423;29;20237;-72
2023/12/16 00:31:22;;;;;;;4.00;2.00;;;;;;;;;;4909337;29;20234;-71
2023/12/16 00:33:48;;;;;;;2.53;1.70;;;;;;;;;;4924541;29;20731;-71
2023/12/16 00:36:13;;;;;;;2.50;1.60;;;;;;;;;;4925748;29;20229;-71
2023/12/16 00:38:38;;;;;;;1.90;1.63;;;;;;;;;;4926557;29;20253;-72
2023/12/16 00:41:04;;;;;;;3.13;1.90;;;;;;;;;;4926955;29;20696;-72
2023/12/16 00:43:29;;;;;;;2.40;1.87;;;;;;;;;;4907485;29;20625;-71
2023/12/16 00:45:54;;;;;;;3.23;1.80;;;;;;;;;;4908713;29;20644;-71
2023/12/16 00:48:20;;;;;;;2.10;1.63;;;;;;;;;;4908984;29;20624;-72
2023/12/16 00:50:45;;;;;;;3.23;1.70;;;;;;;;;;4908580;29;20333;-71
2023/12/16 00:53:11;;;;;;;2.20;1.80;;;;;;;;;;4925243;29;20217;-72
2023/12/16 00:55:38;;;;;;;2.43;1.70;;;;;;;;;;4909377;29;20217;-71
2023/12/16 00:58:04;;;;;;;2.50;1.70;;;;;;;;;;4923981;29;20252;-71
2023/12/16 01:00:29;;;;;;;2.37;1.70;;;;;;;;;;4909671;29;20260;-71
2023/12/16 01:02:54;;;;;;;2.77;2.17;;;;;;;;;;4909150;29;20264;-71
2023/12/16 01:05:20;;;;;;;2.30;1.70;;;;;;;;;;4924535;29;20269;-71
2023/12/16 01:07:46;;;;;;;3.90;1.80;;;;;;;;;;4908894;29;21033;-71
2023/12/16 01:10:11;;;;;;;2.77;1.60;;;;;;;;;;4924944;29;20250;-70
2023/12/16 01:12:37;;;;;;;2.23;1.70;;;;;;;;;;4925379;29;20700;-71
2023/12/16 01:15:03;;;;;;;2.00;1.70;;;;;;;;;;4924410;29;21312;-71
2023/12/16 01:17:28;;;;;;;1.97;1.50;;;;;;;;;;4925069;29;20230;-71
2023/12/16 01:19:54;;;;;;;1.67;1.40;;;;;;;;;;4925003;29;20288;-74
2023/12/16 01:22:19;;;;;;;1.90;1.40;;;;;;;;;;4923894;29;20320;-73
2023/12/16 01:24:44;;;;;;;2.57;1.50;;;;;;;;;;4908440;29;20253;-74
2023/12/16 01:27:10;;;;;;;3.83;1.60;;;;;;;;;;4926528;29;20316;-74
2023/12/16 01:29:35;;;;;;;2.27;1.50;;;;;;;;;;4925979;29;20233;-74
2023/12/16 01:32:00;;;;;;;2.27;1.47;;;;;;;;;;4908117;29;20229;-74
2023/12/16 01:34:26;;;;;;;2.07;1.70;;;;;;;;;;4924727;29;20222;-75
2023/12/16 01:36:51;;;;;;;2.17;1.70;;;;;;;;;;4924375;29;20328;-74
2023/12/16 01:39:16;;;;;;;2.30;1.60;;;;;;;;;;4924766;29;20221;-75
2023/12/16 01:41:42;;;;;;;1.60;1.30;;;;;;;;;;4925452;29;20252;-74
2023/12/16 01:44:07;;;;;;;2.07;1.77;;;;;;;;;;4924592;29;20237;-75
2023/12/16 01:46:35;;;;;;;3.07;1.67;;;;;;;;;;4914758;29;20245;-75
2023/12/16 01:49:01;;;;;;;2.40;1.60;;;;;;;;;;4924312;29;20699;-75
2023/12/16 01:51:27;;;;;;;5.83;2.30;;;;;;;;;;4924318;29;20239;-75
2023/12/16 01:53:52;;;;;;;5.77;3.17;;;;;;;;;;4923588;29;20233;-75
2023/12/16 01:56:18;;;;;;;8.40;4.63;;;;;;;;;;4924803;29;20232;-75
2023/12/16 01:58:43;;;;;;;11.83;5.77;;;;;;;;;;4907715;29;20308;-75
2023/12/16 02:01:08;;;;;;;7.37;4.00;;;;;;;;;;4908397;29;20248;-76
2023/12/16 02:03:34;;;;;;;5.37;3.13;;;;;;;;;;4924682;29;20320;-74
2023/12/16 02:05:59;;;;;;;4.80;2.63;;;;;;;;;;4923473;29;20234;-74
2023/12/16 02:08:24;;;;;;;4.83;3.00;;;;;;;;;;4907948;29;20754;-75
2023/12/16 02:10:50;;;;;;;2.60;2.00;;;;;;;;;;4923799;29;20353;-74
2023/12/16 02:13:18;;;;;;;2.00;1.60;;;;;;;;;;4924481;29;20226;-74
2023/12/16 02:15:43;;;;;;;1.40;1.30;;;;;;;;;;4908812;29;20245;-74
2023/12/16 02:18:09;;;;;;;1.80;1.50;;;;;;;;;;4925511;29;21095;-74
2023/12/16 02:20:34;;;;;;;1.53;1.40;;;;;;;;;;4923099;29;20583;-75
2023/12/16 02:23:00;;;;;;;1.97;1.77;;;;;;;;;;4907993;29;20308;-75
2023/12/16 02:25:25;;;;;;;1.70;1.60;;;;;;;;;;4908592;29;20226;-76
2023/12/16 02:27:50;;;;;;;1.97;1.70;;;;;;;;;;4923345;29;20225;-76
2023/12/16 02:30:16;;;;;;;1.80;1.50;;;;;;;;;;4926306;29;20252;-76
2023/12/16 02:32:41;;;;;;;2.03;1.10;;;;;;;;;;4926892;29;20236;-74
2023/12/16 02:35:06;;;;;;;1.60;1.40;;;;;;;;;;4928716;29;20359;-74
2023/12/16 02:37:32;;;;;;;2.70;1.40;;;;;;;;;;4912044;29;20261;-74
2023/12/16 02:39:57;;;;;;;1.63;1.30;;;;;;;;;;4926855;29;20222;-74
2023/12/16 02:42:22;;;;;;;1.60;1.37;;;;;;;;;;4911445;29;20225;-73
2023/12/16 02:44:48;;;;;;;1.90;1.77;;;;;;;;;;4927476;29;20715;-74
2023/12/16 02:47:13;;;;;;;9.47;6.03;;;;;;;;;;4927666;29;20316;-74
2023/12/16 02:49:39;;;;;;;8.10;5.23;;;;;;;;;;4927546;29;20269;-74
2023/12/16 02:52:05;;;;;;;9.00;3.93;;;;;;;;;;4927647;29;20218;-74
2023/12/16 02:54:30;;;;;;;5.03;2.30;;;;;;;;;;4928711;29;20240;-75
2023/12/16 02:56:55;;;;;;;5.83;3.83;;;;;;;;;;4910524;29;20390;-74
2023/12/16 02:59:21;;;;;;;7.00;3.73;;;;;;;;;;4923925;29;20222;-75
2023/12/16 03:01:46;;;;;;;2.33;1.60;;;;;;;;;;4908642;29;20321;-76
2023/12/16 03:04:12;;;;;;;1.93;1.53;;;;;;;;;;4924277;29;20366;-75
2023/12/16 03:06:41;;;;;;;5.87;1.87;;;;;;;;;;4923730;29;20234;-76
2023/12/16 03:09:07;;;;;;;2.70;1.70;;;;;;;;;;4927654;29;20249;-76
2023/12/16 03:11:32;;;;;;;3.00;1.70;;;;;;;;;;4911040;29;20237;-76
2023/12/16 03:13:57;;;;;;;3.63;2.23;;;;;;;;;;4927269;29;20236;-76
2023/12/16 03:16:23;;;;;;;2.60;1.60;;;;;;;;;;4928456;29;20232;-75
2023/12/16 03:18:48;;;;;;;5.67;3.77;;;;;;;;;;4926201;29;20225;-76
2023/12/16 03:21:13;;;;;;;12.80;7.20;;;;;;;;;;4910791;29;20233;-75
2023/12/16 03:23:39;;;;;;;12.33;7.50;;;;;;;;;;4911181;29;20217;-74
2023/12/16 03:26:06;;;;;;;5.50;3.60;;;;;;;;;;4927431;29;20221;-71
2023/12/16 03:28:32;;;;;;;6.37;3.60;;;;;;;;;;4926725;29;20241;-70
2023/12/16 03:30:57;;;;;;;4.43;2.70;;;;;;;;;;4910049;29;20237;-70
2023/12/16 03:33:22;;;;;;;3.43;2.23;;;;;;;;;;4927426;29;20761;-71
2023/12/16 03:35:48;;;;;;;1.60;1.40;;;;;;;;;;4910034;29;20259;-71
2023/12/16 03:38:13;;;;;;;1.57;1.40;;;;;;;;;;4927745;29;20232;-71
2023/12/16 03:40:38;;;;;;;1.53;1.30;;;;;;;;;;4924873;29;20265;-73
2023/12/16 03:43:04;;;;;;;2.17;1.30;;;;;;;;;;4927690;29;20245;-71
2023/12/16 03:45:29;;;;;;;3.13;1.30;;;;;;;;;;4927579;29;20651;-71
2023/12/16 03:47:55;;;;;;;2.77;1.30;;;;;;;;;;4927509;29;20337;-71
2023/12/16 03:50:20;;;;;;;2.27;1.30;;;;;;;;;;4925696;29;20245;-71
2023/12/16 03:52:45;;;;;;;2.30;1.33;;;;;;;;;;4925680;29;20230;-72
2023/12/16 03:55:11;;;;;;;1.33;1.20;;;;;;;;;;4926771;29;20236;-72
2023/12/16 03:57:37;;;;;;;1.40;1.30;;;;;;;;;;4926724;29;20287;-71
2023/12/16 04:00:03;;;;;;;2.97;1.90;;;;;;;;;;4924758;29;20686;-71
2023/12/16 04:02:28;;;;;;;6.70;2.87;;;;;;;;;;4916912;29;20234;-76
2023/12/16 04:04:53;;;;;;;5.40;3.00;;;;;;;;;;4909581;29;20226;-76
2023/12/16 04:07:19;;;;;;;7.27;3.33;;;;;;;;;;4926896;29;20225;-76
2023/12/16 04:09:45;;;;;;;5.23;2.93;;;;;;;;;;4908354;29;20241;-76
2023/12/16 04:12:10;;;;;;;5.77;2.43;;;;;;;;;;4910759;29;20236;-76
2023/12/16 04:14:36;;;;;;;2.70;1.30;;;;;;;;;;4916751;29;20417;-76
2023/12/16 04:17:02;;;;;;;3.37;1.43;;;;;;;;;;4909948;29;20304;-76
2023/12/16 04:19:27;;;;;;;9.27;3.97;;;;;;;;;;4909833;29;20229;-76
2023/12/16 04:21:52;;;;;;;5.13;2.80;;;;;;;;;;4912335;29;20230;-76
2023/12/16 04:24:18;;;;;;;3.30;2.00;;;;;;;;;;4926935;29;20229;-72
2023/12/16 04:26:43;;;;;;;3.77;2.23;;;;;;;;;;4909164;29;20311;-72
2023/12/16 04:29:09;;;;;;;3.07;1.97;;;;;;;;;;4926169;29;20233;-76
2023/12/16 04:31:34;;;;;;;3.07;1.70;;;;;;;;;;4925243;29;20338;-70
2023/12/16 04:33:59;;;;;;;1.77;1.50;;;;;;;;;;4926312;29;20339;-71
2023/12/16 04:36:25;;;;;;;8.80;4.07;;;;;;;;;;4925565;29;20229;-72
2023/12/16 04:38:50;;;;;;;10.10;3.87;;;;;;;;;;4909446;29;20249;-71
2023/12/16 04:41:16;;;;;;;4.80;2.00;;;;;;;;;;4925158;29;20233;-72
2023/12/16 04:43:41;;;;;;;2.47;1.70;;;;;;;;;;4924876;29;20613;-72
2023/12/16 04:46:06;;;;;;;4.57;2.00;;;;;;;;;;4925375;29;20221;-71
2023/12/16 04:48:32;;;;;;;20.77;7.80;;;;;;;;;;4925242;29;20240;-71
2023/12/16 04:51:04;;;;;;;5.40;2.50;;;;;;;;;;4924818;29;20236;-71
2023/12/16 04:53:29;;;;;;;7.40;3.37;;;;;;;;;;4923987;29;20264;-70
2023/12/16 04:55:55;;;;;;;1.70;1.43;;;;;;;;;;4924426;29;20249;-71
2023/12/16 04:58:20;;;;;;;4.37;2.23;;;;;;;;;;4927009;29;20308;-71
2023/12/16 05:00:45;;;;;;;5.00;2.73;;;;;;;;;;4925675;29;20595;-71
2023/12/16 05:03:12;;;;;;;3.73;2.00;;;;;;;;;;4924610;29;20766;-71
2023/12/16 05:05:37;;;;;;;15.17;6.13;;;;;;;;;;4925165;29;20278;-75
2023/12/16 05:08:02;;;;;;;4.57;2.23;;;;;;;;;;4924700;29;20221;-76
2023/12/16 05:10:28;;;;;;;25.67;10.50;;;;;;;;;;4925677;29;20378;-76
2023/12/16 05:12:54;;;;;;;40.70;14.50;;;;;;;;;;4923640;29;20288;-75
2023/12/16 05:15:19;;;;;;;27.80;10.90;;;;;;;;;;4924130;29;20233;-77
2023/12/16 05:17:44;;;;;;;13.57;6.33;;;;;;;;;;4925957;29;20644;-76
2023/12/16 05:20:10;;;;;;;85.00;31.47;;;;;;;;;;4925430;29;20237;-77
2023/12/16 05:22:35;;;;;;;12.07;5.27;;;;;;;;;;4924642;29;20246;-76
2023/12/16 05:25:01;;;;;;;11.53;4.70;;;;;;;;;;4923630;29;20766;-76
2023/12/16 05:27:27;;;;;;;9.97;3.87;;;;;;;;;;4925215;29;20229;-76
2023/12/16 05:29:53;;;;;;;3.00;2.00;;;;;;;;;;4908086;29;20248;-77
2023/12/16 05:32:18;;;;;;;3.03;1.53;;;;;;;;;;4924479;29;20217;-76
2023/12/16 05:34:43;;;;;;;3.60;1.60;;;;;;;;;;4916252;29;20658;-75
2023/12/16 05:37:09;;;;;;;1.87;1.30;;;;;;;;;;4923732;29;20221;-76
2023/12/16 05:39:34;;;;;;;4.93;1.40;;;;;;;;;;4908026;29;20798;-76
2023/12/16 05:42:00;;;;;;;1.57;1.30;;;;;;;;;;4929878;29;20308;-76
2023/12/16 05:44:25;;;;;;;2.90;1.37;;;;;;;;;;4923039;29;20296;-76
2023/12/16 05:46:51;;;;;;;3.37;1.40;;;;;;;;;;4923926;29;20229;-76
2023/12/16 05:49:16;;;;;;;4.10;2.40;;;;;;;;;;4907200;29;20769;-76
2023/12/16 05:51:42;;;;;;;5.20;3.77;;;;;;;;;;4907322;29;20277;-76
2023/12/16 05:54:10;;;;;;;3.40;2.67;;;;;;;;;;4922987;29;20225;-75
2023/12/16 05:56:35;;;;;;;2.20;2.00;;;;;;;;;;4923415;29;20236;-76
2023/12/16 05:59:01;;;;;;;2.63;1.50;;;;;;;;;;4922125;29;20233;-76
2023/12/16 06:01:26;;;;;;;3.50;2.67;;;;;;;;;;4906055;29;20245;-76
2023/12/16 06:03:52;;;;;;;1.70;1.40;;;;;;;;;;4921982;29;20328;-76
2023/12/16 06:06:17;;;;;;;2.07;1.50;;;;;;;;;;4923483;29;20821;-75
2023/12/16 06:08:42;;;;;;;1.37;1.20;;;;;;;;;;4907525;29;20264;-76
2023/12/16 06:11:12;;;;;;;2.00;1.23;;;;;;;;;;4928066;29;20229;-76
2023/12/16 06:13:37;;;;;;;2.00;1.27;;;;;;;;;;4909678;29;20229;-76
2023/12/16 06:16:03;;;;;;;1.60;1.23;;;;;;;;;;4911073;29;20241;-76
2023/12/16 06:18:28;;;;;;;6.03;4.03;;;;;;;;;;4927043;29;20229;-75
2023/12/16 06:20:54;;;;;;;5.90;4.30;;;;;;;;;;4910926;29;20715;-76
2023/12/16 06:23:19;;;;;;;4.03;1.90;;;;;;;;;;4912494;29;20236;-70
2023/12/16 06:25:44;;;;;;;3.93;2.20;;;;;;;;;;4929054;29;20316;-71
2023/12/16 06:28:10;;;;;;;3.33;1.80;;;;;;;;;;4927767;29;20258;-71
2023/12/16 06:30:35;;;;;;;2.77;1.80;;;;;;;;;;4920154;29;20245;-71
2023/12/16 06:33:00;;;;;;;3.10;1.90;;;;;;;;;;4933553;29;20228;-70
2023/12/16 06:35:26;;;;;;;4.77;2.00;;;;;;;;;;4927150;29;20225;-71
2023/12/16 06:37:51;;;;;;;4.53;2.00;;;;;;;;;;4925047;29;20229;-70
2023/12/16 06:40:17;;;;;;;9.07;4.23;;;;;;;;;;4927505;29;20229;-71
2023/12/16 06:42:42;;;;;;;4.53;1.90;;;;;;;;;;4926732;29;20222;-71
2023/12/16 06:45:08;;;;;;;3.30;1.80;;;;;;;;;;4927762;29;20229;-71
2023/12/16 06:47:34;;;;;;;7.47;2.00;;;;;;;;;;4919349;29;20917;-71
2023/12/16 06:49:59;;;;;;;6.33;2.10;;;;;;;;;;4926078;29;20257;-71
2023/12/16 06:52:24;;;;;;;6.43;3.67;;;;;;;;;;4927833;29;20222;-70
2023/12/16 06:54:50;;;;;;;2.43;1.57;;;;;;;;;;4926933;29;20249;-70
2023/12/16 06:57:15;;;;;;;2.73;1.50;;;;;;;;;;4924630;29;20290;-71
2023/12/16 06:59:41;;;;;;;2.33;1.40;;;;;;;;;;4926016;29;20628;-71
2023/12/16 07:02:06;;;;;;;3.50;1.30;;;;;;;;;;4927046;29;20289;-70
2023/12/16 07:04:31;;;;;;;1.67;1.27;;;;;;;;;;4911854;29;20237;-72
2023/12/16 07:06:57;;;;;;;2.23;1.23;;;;;;;;;;4911513;29;20320;-71
2023/12/16 07:09:22;;;;;;;3.67;1.50;;;;;;;;;;4911800;29;20245;-71
2023/12/16 07:11:47;;;;;;;3.80;1.40;;;;;;;;;;4929361;29;20229;-71
2023/12/16 07:14:12;;;;;;;2.00;1.27;;;;;;;;;;4928872;29;20740;-72
2023/12/16 07:16:38;;;;;;;1.50;1.20;;;;;;;;;;4926338;29;20751;-71
2023/12/16 07:19:03;;;;;;;2.47;1.40;;;;;;;;;;4928838;29;20230;-74
2023/12/16 07:21:29;;;;;;;2.10;1.40;;;;;;;;;;4911909;29;20229;-74
2023/12/16 07:23:54;;;;;;;2.07;1.30;;;;;;;;;;4911012;29;20285;-74
2023/12/16 07:26:20;;;;;;;3.10;1.40;;;;;;;;;;4926905;29;20305;-74
2023/12/16 07:28:45;;;;;;;3.83;1.60;;;;;;;;;;4910596;29;20722;-74
2023/12/16 07:31:10;;;;;;;2.43;1.53;;;;;;;;;;4928824;29;20229;-74
2023/12/16 07:33:37;;;;;;;2.33;1.70;;;;;;;;;;4928785;29;20231;-74
2023/12/16 07:36:03;;;;;;;2.53;1.70;;;;;;;;;;4926324;29;20304;-73
2023/12/16 07:38:28;;;;;;;2.23;1.60;;;;;;;;;;4927044;29;20682;-73
2023/12/16 07:40:53;;;;;;;3.67;1.77;;;;;;;;;;4927389;29;20238;-75
2023/12/16 07:43:19;;;;;;;2.40;1.70;;;;;;;;;;4932288;29;20221;-70
2023/12/16 07:45:45;;;;;;;4.23;2.07;;;;;;;;;;4927277;29;20616;-71
2023/12/16 07:48:10;;;;;;;4.37;1.97;;;;;;;;;;4927667;29;20225;-71
2023/12/16 07:50:36;;;;;;;3.40;1.90;;;;;;;;;;4926710;29;20237;-70
2023/12/16 07:53:02;;;;;;;3.90;2.07;;;;;;;;;;4925524;29;20233;-74
2023/12/16 07:55:30;;;;;;;4.00;2.20;;;;;;;;;;4926980;29;20324;-73
2023/12/16 07:57:55;;;;;;;3.33;2.10;;;;;;;;;;4925303;29;20238;-74
2023/12/16 08:00:21;;;;;;;4.40;2.70;;;;;;;;;;4926810;29;20337;-76
2023/12/16 08:02:46;;;;;;;6.07;2.80;;;;;;;;;;4910425;29;20233;-75
2023/12/16 08:05:12;;;;;;;3.80;2.00;;;;;;;;;;4925000;29;20654;-75
2023/12/16 08:07:37;;;;;;;3.90;2.10;;;;;;;;;;4926339;29;20288;-75
2023/12/16 08:10:03;;;;;;;5.33;2.67;;;;;;;;;;4909388;29;20229;-76
2023/12/16 08:12:29;;;;;;;3.63;2.07;;;;;;;;;;4909257;29;20735;-74
2023/12/16 08:14:55;;;;;;;6.30;2.50;;;;;;;;;;4927442;29;20253;-73
2023/12/16 08:17:21;;;;;;;4.87;2.70;;;;;;;;;;4925812;29;20232;-73
2023/12/16 08:19:47;;;;;;;4.57;2.50;;;;;;;;;;4925211;29;20613;-75
2023/12/16 08:22:12;;;;;;;6.87;3.00;;;;;;;;;;4925802;29;20224;-74
2023/12/16 08:24:39;;;;;;;7.03;3.27;;;;;;;;;;4925889;29;20225;-74
2023/12/16 08:27:05;;;;;;;11.13;3.90;;;;;;;;;;4923948;29;20248;-73
2023/12/16 08:29:30;;;;;;;6.30;3.13;;;;;;;;;;4926811;29;20276;-73
2023/12/16 08:31:55;;;;;;;12.23;3.40;;;;;;;;;;4925588;29;20710;-74
2023/12/16 08:34:22;;;;;;;5.93;2.80;;;;;;;;;;4925768;29;20665;-73
2023/12/16 08:36:48;;;;;;;8.63;2.40;;;;;;;;;;4925836;29;20954;-73
2023/12/16 08:39:14;;;;;;;3.97;2.40;;;;;;;;;;4912027;29;20328;-74
2023/12/16 08:41:40;;;;;;;4.03;2.43;;;;;;;;;;4927142;29;20272;-73
2023/12/16 08:44:05;;;;;;;5.07;2.87;;;;;;;;;;4909929;29;20221;-74
2023/12/16 08:46:31;;;;;;;4.97;2.50;;;;;;;;;;4908805;29;20239;-74
2023/12/16 08:48:56;;;;;;;3.07;2.30;;;;;;;;;;4908419;29;20237;-74
2023/12/16 08:51:22;;;;;;;5.77;2.40;;;;;;;;;;4918480;29;20239;-71
2023/12/16 08:53:48;;;;;;;5.23;2.40;;;;;;;;;;4907532;29;20233;-71
2023/12/16 08:56:14;;;;;;;10.07;6.10;;;;;;;;;;4908859;29;20255;-70
2023/12/16 08:58:40;;;;;;;6.40;4.00;;;;;;;;;;4920454;29;20225;-75
2023/12/16 09:01:06;;;;;;;4.03;2.47;;;;;;;;;;4907620;29;20253;-74
2023/12/16 09:03:32;;;;;;;7.90;4.10;;;;;;;;;;4906882;29;20233;-71
2023/12/16 09:05:57;;;;;;;7.37;3.40;;;;;;;;;;4908728;29;20249;-72
2023/12/16 09:08:23;;;;;;;3.83;2.40;;;;;;;;;;4923301;29;20222;-75
2023/12/16 09:10:48;;;;;;;3.40;2.60;;;;;;;;;;4917892;29;20244;-76
2023/12/16 09:13:14;;;;;;;4.03;2.40;;;;;;;;;;4923727;29;20233;-75
2023/12/16 09:15:39;;;;;;;5.63;2.50;;;;;;;;;;4924055;29;20234;-71
2023/12/16 09:18:05;;;;;;;4.63;2.30;;;;;;;;;;4925686;29;20710;-73
2023/12/16 09:20:31;;;;;;;7.77;3.90;;;;;;;;;;4927672;29;20375;-72
2023/12/16 09:22:58;;;;;;;3.97;2.40;;;;;;;;;;4915664;29;20368;-72
2023/12/16 09:25:24;;;;;;;2.90;2.13;;;;;;;;;;4923157;29;20233;-72
2023/12/16 09:27:49;;;;;;;4.63;2.60;;;;;;;;;;4924514;29;20280;-71
2023/12/16 09:30:16;;;;;;;7.27;3.00;;;;;;;;;;4925595;29;20757;-75
2023/12/16 09:32:42;;;;;;;3.37;2.23;;;;;;;;;;4924118;29;20240;-75
2023/12/16 09:35:08;;;;;;;3.23;2.40;;;;;;;;;;4909350;29;20233;-75
2023/12/16 09:37:33;;;;;;;4.77;2.50;;;;;;;;;;4925344;29;20233;-74
2023/12/16 09:39:59;;;;;;;5.23;2.60;;;;;;;;;;4923150;29;20237;-71
2023/12/16 09:42:25;;;;;;;6.33;2.63;;;;;;;;;;4916697;29;20230;-75
2023/12/16 09:44:50;;;;;;;5.07;2.30;;;;;;;;;;4908715;29;20229;-75
2023/12/16 09:47:16;;;;;;;5.27;2.10;;;;;;;;;;4925726;29;20234;-74
2023/12/16 09:49:42;;;;;;;5.53;2.07;;;;;;;;;;4921979;29;20305;-74
2023/12/16 09:52:08;;;;;;;4.13;2.20;;;;;;;;;;4926767;29;20229;-74
2023/12/16 09:54:33;;;;;;;3.30;2.13;;;;;;;;;;4926273;29;20271;-72
2023/12/16 09:56:59;;;;;;;5.83;2.30;;;;;;;;;;4926646;29;20229;-72
2023/12/16 09:59:25;;;;;;;5.57;3.60;;;;;;;;;;4924801;29;20225;-72
2023/12/16 10:01:52;;;;;;;5.67;3.17;;;;;;;;;;4921825;29;20225;-72
2023/12/16 10:04:19;;;;;;;7.50;4.10;;;;;;;;;;4923383;29;20963;-71
2023/12/16 10:06:45;;;;;;;4.37;2.60;;;;;;;;;;4921107;29;20269;-70
2023/12/16 10:09:10;;;;;;;3.10;2.30;;;;;;;;;;4923780;29;20233;-74
2023/12/16 10:11:39;;;;;;;3.60;2.30;;;;;;;;;;4924174;29;20684;-73
2023/12/16 10:14:05;;;;;;;3.93;2.00;;;;;;;;;;4924976;29;20244;-74
2023/12/16 10:16:30;;;;;;;4.17;2.07;;;;;;;;;;4922609;29;20228;-72
2023/12/16 10:18:58;;;;;;;10.93;2.30;;;;;;;;;;4923658;29;20791;-72
2023/12/16 10:21:30;;;;;;;5.17;2.60;;;;;;;;;;4924516;29;20294;-75
2023/12/16 10:23:56;;;;;;;6.37;2.67;;;;;;;;;;4909215;29;20232;-75
2023/12/16 10:26:21;;;;;;;3.67;2.20;;;;;;;;;;4925739;29;20225;-75
2023/12/16 10:28:47;;;;;;;3.90;2.27;;;;;;;;;;4924511;29;20235;-76
2023/12/16 10:31:13;;;;;;;3.93;2.20;;;;;;;;;;4924063;29;20249;-76
2023/12/16 10:33:38;;;;;;;4.87;2.10;;;;;;;;;;4908596;29;20245;-75
2023/12/16 10:36:04;;;;;;;3.63;2.00;;;;;;;;;;4924558;29;20317;-75
2023/12/16 10:38:29;;;;;;;4.90;2.20;;;;;;;;;;4924977;29;20213;-75
2023/12/16 10:40:54;;;;;;;6.07;2.00;;;;;;;;;;4923506;29;20256;-74
2023/12/16 10:43:20;;;;;;;4.37;2.20;;;;;;;;;;4924215;29;20341;-75
2023/12/16 10:45:46;;;;;;;4.40;2.00;;;;;;;;;;4921996;29;20225;-75
2023/12/16 10:48:11;;;;;;;22.00;7.10;;;;;;;;;;4925575;29;20218;-75
2023/12/16 10:50:40;;;;;;;2.70;1.90;;;;;;;;;;4925391;29;20300;-75
2023/12/16 10:53:06;;;;;;;2.90;2.20;;;;;;;;;;4927742;29;20648;-75
2023/12/16 10:55:39;;;;;;;6.10;2.50;;;;;;;;;;4927665;29;20244;-75
2023/12/16 10:58:10;;;;;;;2.87;2.10;;;;;;;;;;4911566;29;20225;-75
2023/12/16 11:00:37;;;;;;;3.90;2.17;;;;;;;;;;4928139;29;20700;-73
2023/12/16 11:03:07;;;;;;;5.30;2.30;;;;;;;;;;4902220;29;20244;-75
2023/12/16 11:05:34;;;;;;;5.60;2.27;;;;;;;;;;4901364;29;20730;-75
2023/12/16 11:08:03;;;;;;;4.97;2.80;;;;;;;;;;4926783;29;20230;-75
2023/12/16 11:10:32;;;;;;;4.90;2.70;;;;;;;;;;4915607;29;20324;-75
2023/12/16 11:12:58;;;;;;;6.00;3.00;;;;;;;;;;4926937;29;20264;-74
2023/12/16 11:15:23;;;;;;;3.90;2.60;;;;;;;;;;4910828;29;20244;-73
2023/12/16 11:18:02;;;;;;;4.20;2.50;;;;;;;;;;4909832;29;20245;-73
2023/12/16 11:20:30;;;;;;;5.53;2.80;;;;;;;;;;4927993;29;20233;-75
2023/12/16 11:22:56;;;;;;;3.63;2.30;;;;;;;;;;4929602;29;20672;-75
2023/12/16 11:25:22;;;;;;;9.47;4.17;;;;;;;;;;4926856;29;20315;-73
2023/12/16 11:27:48;;;;;;;5.10;2.83;;;;;;;;;;4911935;29;20276;-72
2023/12/16 11:30:17;;;;;;;4.60;2.70;;;;;;;;;;4925215;29;20245;-71
2023/12/16 11:32:45;;;;;;;4.87;2.80;;;;;;;;;;4942222;29;20316;-74
2023/12/16 11:35:11;;;;;;;7.23;2.70;;;;;;;;;;4926719;29;20225;-74
2023/12/16 11:37:36;;;;;;;5.23;3.20;;;;;;;;;;4927960;29;20252;-74
2023/12/16 11:40:07;;;;;;;5.00;2.80;;;;;;;;;;4920677;29;21276;-75
2023/12/16 11:42:54;;;;;;;6.13;3.27;;;;;;;;;;4889480;29;20285;-74
2023/12/16 11:45:37;;;;;;;5.40;3.10;;;;;;;;;;4923902;29;20233;-74
2023/12/16 11:48:03;;;;;;;6.20;3.30;;;;;;;;;;4925173;29;20237;-74
2023/12/16 11:50:28;;;;;;;20.63;10.77;;;;;;;;;;4926914;29;20248;-74
2023/12/16 11:52:54;;;;;;;7.50;4.00;;;;;;;;;;4924617;29;20316;-73
2023/12/16 11:55:19;;;;;;;8.43;4.73;;;;;;;;;;4925951;29;20232;-72
2023/12/16 11:57:46;;;;;;;12.17;7.10;;;;;;;;;;4926485;29;20217;-73
2023/12/16 12:00:13;;;;;;;7.27;3.90;;;;;;;;;;4917133;29;20217;-75
2023/12/16 12:02:39;;;;;;;10.40;4.97;;;;;;;;;;4909233;29;20226;-75
2023/12/16 12:05:05;;;;;;;8.43;4.40;;;;;;;;;;4927090;29;20963;-74
2023/12/16 12:07:30;;;;;;;16.40;8.07;;;;;;;;;;4929108;29;20236;-74
2023/12/16 12:09:56;;;;;;;19.27;11.23;;;;;;;;;;4918859;29;20297;-75
2023/12/16 12:12:22;;;;;;;13.73;7.10;;;;;;;;;;4925113;29;20240;-74
2023/12/16 12:14:47;;;;;;;9.90;5.30;;;;;;;;;;4924455;29;21047;-73
2023/12/16 12:17:14;;;;;;;29.60;18.27;;;;;;;;;;4926360;29;20229;-75
2023/12/16 12:19:42;;;;;;;10.53;6.37;;;;;;;;;;4915254;29;20235;-74
2023/12/16 12:22:07;;;;;;;7.03;3.50;;;;;;;;;;4910139;29;20261;-75
2023/12/16 12:24:33;;;;;;;6.43;3.67;;;;;;;;;;4914649;29;20286;-75
2023/12/16 12:26:59;;;;;;;10.97;4.73;;;;;;;;;;4907621;29;20232;-75
2023/12/16 12:29:25;;;;;;;69.17;25.13;;;;;;;;;;4931949;29;20264;-75
2023/12/16 12:31:52;;;;;;;60.80;22.37;;;;;;;;;;4919820;29;20217;-73
2023/12/16 12:34:20;;;;;;;6.90;3.60;;;;;;;;;;4915107;29;20229;-75
2023/12/16 12:36:46;;;;;;;7.80;4.20;;;;;;;;;;4919360;29;20222;-74
2023/12/16 12:39:18;;;;;;;36.50;15.67;;;;;;;;;;4907622;29;20236;-72
2023/12/16 12:41:43;;;;;;;5.23;2.80;;;;;;;;;;4923219;29;20226;-72
2023/12/16 12:44:10;;;;;;;3.37;2.30;;;;;;;;;;4921356;29;20225;-71
2023/12/16 12:46:44;;;;;;;4.33;2.60;;;;;;;;;;4904816;29;20724;-73
2023/12/16 12:49:10;;;;;;;3.50;2.27;;;;;;;;;;4893051;29;20229;-71
2023/12/16 12:51:40;;;;;;;4.57;2.50;;;;;;;;;;4907497;29;20233;-74
2023/12/16 12:54:06;;;;;;;4.13;2.00;;;;;;;;;;4920144;29;20740;-74
2023/12/16 12:56:32;;;;;;;3.37;2.10;;;;;;;;;;4915014;29;20372;-74
2023/12/16 12:58:58;;;;;;;3.70;2.03;;;;;;;;;;4919091;29;20221;-74
2023/12/16 13:01:23;;;;;;;4.17;2.50;;;;;;;;;;4918233;28;20244;-74
2023/12/16 13:03:49;;;;;;;4.63;2.10;;;;;;;;;;4905928;29;20606;-74
2023/12/16 13:06:14;;;;;;;3.90;2.43;;;;;;;;;;4924880;29;20245;-74
2023/12/16 13:08:41;;;;;;;4.60;2.23;;;;;;;;;;4915637;29;20252;-73
2023/12/16 13:11:06;;;;;;;20.10;10.30;;;;;;;;;;4923176;29;20731;-73
2023/12/16 13:13:31;;;;;;;6.10;3.73;;;;;;;;;;4897639;29;20237;-75
2023/12/16 13:15:57;;;;;;;8.87;5.20;;;;;;;;;;4898651;29;20231;-72
2023/12/16 13:18:22;;;;;;;3.33;2.30;;;;;;;;;;4915667;29;20241;-73
2023/12/16 13:20:49;;;;;;;5.20;2.90;;;;;;;;;;4922004;29;20217;-73
2023/12/16 13:23:14;;;;;;;3.60;2.60;;;;;;;;;;4923158;29;20272;-73
2023/12/16 13:25:40;;;;;;;3.80;2.73;;;;;;;;;;4922316;29;20815;-73
2023/12/16 13:28:05;;;;;;;3.90;2.37;;;;;;;;;;4927026;29;20594;-73
2023/12/16 13:30:30;;;;;;;2.73;1.90;;;;;;;;;;4920018;29;20241;-73
2023/12/16 13:32:56;;;;;;;4.43;2.60;;;;;;;;;;4919047;29;20618;-73
2023/12/16 13:35:21;;;;;;;3.93;2.60;;;;;;;;;;4911782;28;20281;-72
2023/12/16 13:37:46;;;;;;;4.20;2.77;;;;;;;;;;4920449;29;20225;-74
2023/12/16 13:40:12;;;;;;;4.07;2.77;;;;;;;;;;4922395;29;20292;-73
2023/12/16 13:42:38;;;;;;;3.90;2.90;;;;;;;;;;4905868;29;20223;-73
2023/12/16 13:45:04;;;;;;;4.70;3.10;;;;;;;;;;4921602;29;20641;-74
2023/12/16 13:47:29;;;;;;;4.70;2.93;;;;;;;;;;4921692;29;21017;-73
2023/12/16 13:49:55;;;;;;;4.97;2.80;;;;;;;;;;4920533;28;20386;-73
2023/12/16 13:52:20;;;;;;;3.87;2.53;;;;;;;;;;4920005;29;20225;-73
2023/12/16 13:54:46;;;;;;;4.03;2.50;;;;;;;;;;4920271;29;20229;-74
2023/12/16 13:57:12;;;;;;;3.93;2.40;;;;;;;;;;4921449;29;20252;-71
2023/12/16 13:59:37;;;;;;;4.00;2.40;;;;;;;;;;4906182;29;20730;-70
2023/12/16 14:02:04;;;;;;;3.77;2.50;;;;;;;;;;4923603;29;20710;-70
2023/12/16 14:04:29;;;;;;;4.83;3.30;;;;;;;;;;4924018;29;20804;-72
2023/12/16 14:06:55;;;;;;;4.00;2.60;;;;;;;;;;4924347;29;20928;-70
2023/12/16 14:09:20;;;;;;;4.80;2.50;;;;;;;;;;4903919;29;20242;-70
2023/12/16 14:11:46;;;;;;;4.70;2.90;;;;;;;;;;4920612;29;20225;-70
2023/12/16 14:14:11;;;;;;;3.67;2.60;;;;;;;;;;4920195;29;20786;-71
2023/12/16 14:16:37;;;;;;;3.63;2.50;;;;;;;;;;4920113;29;20929;-71
2023/12/16 14:19:02;;;;;;;3.70;2.63;;;;;;;;;;4923812;29;20229;-71
2023/12/16 14:21:27;;;;;;;3.43;2.60;;;;;;;;;;4912624;29;20704;-70
2023/12/16 14:23:59;;;;;;;3.80;2.90;;;;;;;;;;4913598;29;20229;-72
2023/12/16 14:26:24;;;;;;;4.50;3.00;;;;;;;;;;4925060;29;20311;-72
2023/12/16 14:28:50;;;;;;;5.07;3.10;;;;;;;;;;4928859;29;21153;-73
2023/12/16 14:31:17;;;;;;;5.60;2.93;;;;;;;;;;4929119;29;20222;-74
2023/12/16 14:33:42;;;;;;;5.93;2.87;;;;;;;;;;4912132;29;20830;-73